sensor_id;sensor_type;location;lat;lon;timestamp;pressure;altitude;pressure_sealevel;temperature;humidity
30081;BME280;16902;50.816;12.828;2023-03-21T00:04:22;97880.44;;;7.32;100.00
30081;BME280;16902;50.816;12.828;2023-03-21T00:09:25;97878.97;;;6.95;100.00
30081;BME280;16902;50.816;12.828;2023-03-21T00:14:27;97878.63;;;6.64;100.00
30081;BME280;16902;50.816;12.828;2023-03-21T00:19:31;97875.75;;;6.67;100.00
30081;BME280;16902;50.816;12.828;2023-03-21T00:24:34;97868.25;;;6.90;100.00
30081;BME280;16902;50.816;12.828;2023-03-21T00:29:36;97868.47;;;6.97;100.00
30081;BME280;16902;50.816;12.828;2023-03-21T00:34:38;97866.41;;;7.09;100.00
30081;BME280;16902;50.816;12.828;2023-03-21T00:39:55;97868.66;;;7.04;100.00
30081;BME280;16902;50.816;12.828;2023-03-21T00:44:57;97864.13;;;7.06;100.00
30081;BME280;16902;50.816;12.828;2023-03-21T00:49:58;97863.25;;;6.89;100.00
30081;BME280;16902;50.816;12.828;2023-03-21T00:55:00;97866.31;;;6.84;100.00
30081;BME280;16902;50.816;12.828;2023-03-21T01:00:02;97857.81;;;7.00;100.00
30081;BME280;16902;50.816;12.828;2023-03-21T01:05:08;97858.97;;;7.06;100.00
30081;BME280;16902;50.816;12.828;2023-03-21T01:10:11;97855.38;;;6.99;100.00
30081;BME280;16902;50.816;12.828;2023-03-21T01:15:13;97853.91;;;6.96;100.00
30081;BME280;16902;50.816;12.828;2023-03-21T01:20:15;97851.31;;;6.96;100.00
30081;BME280;16902;50.816;12.828;2023-03-21T01:25:17;97849.84;;;6.93;100.00
30081;BME280;16902;50.816;12.828;2023-03-21T01:30:23;97853.00;;;6.79;100.00
30081;BME280;16902;50.816;12.828;2023-03-21T01:35:31;97855.25;;;6.74;100.00
30081;BME280;16902;50.816;12.828;2023-03-21T01:40:49;97847.88;;;6.61;100.00
30081;BME280;16902;50.816;12.828;2023-03-21T01:51:47;97853.41;;;6.66;100.00
30081;BME280;16902;50.816;12.828;2023-03-21T01:56:55;97846.63;;;6.65;100.00
30081;BME280;16902;50.816;12.828;2023-03-21T02:02:00;97848.75;;;6.70;100.00
30081;BME280;16902;50.816;12.828;2023-03-21T02:07:17;97841.56;;;6.82;100.00
30081;BME280;16902;50.816;12.828;2023-03-21T02:12:27;97842.03;;;6.85;100.00
30081;BME280;16902;50.816;12.828;2023-03-21T02:17:44;97834.59;;;6.82;100.00
30081;BME280;16902;50.816;12.828;2023-03-21T02:28:52;97830.41;;;6.55;100.00
30081;BME280;16902;50.816;12.828;2023-03-21T02:34:12;97820.03;;;6.81;100.00
30081;BME280;16902;50.816;12.828;2023-03-21T02:39:30;97828.72;;;6.72;100.00
30081;BME280;16902;50.816;12.828;2023-03-21T02:49:57;97821.97;;;6.79;100.00
30081;BME280;16902;50.816;12.828;2023-03-21T02:55:01;97817.75;;;6.78;100.00
30081;BME280;16902;50.816;12.828;2023-03-21T03:00:18;97818.69;;;6.69;100.00
30081;BME280;16902;50.816;12.828;2023-03-21T03:05:23;97820.66;;;6.75;100.00
30081;BME280;16902;50.816;12.828;2023-03-21T03:22:00;97826.53;;;6.59;100.00
30081;BME280;16902;50.816;12.828;2023-03-21T03:31:59;97821.75;;;6.38;100.00
30081;BME280;16902;50.816;12.828;2023-03-21T03:37:08;97826.53;;;6.33;100.00
30081;BME280;16902;50.816;12.828;2023-03-21T03:42:34;97833.63;;;6.31;100.00
30081;BME280;16902;50.816;12.828;2023-03-21T03:58:34;97832.03;;;6.12;100.00
30081;BME280;16902;50.816;12.828;2023-03-21T04:03:48;97833.28;;;6.08;100.00
30081;BME280;16902;50.816;12.828;2023-03-21T04:09:00;97830.22;;;6.05;100.00
30081;BME280;16902;50.816;12.828;2023-03-21T04:14:06;97838.41;;;6.00;100.00
30081;BME280;16902;50.816;12.828;2023-03-21T04:19:07;97834.19;;;5.99;100.00
30081;BME280;16902;50.816;12.828;2023-03-21T04:24:11;97848.88;;;5.99;100.00
30081;BME280;16902;50.816;12.828;2023-03-21T04:29:16;97842.38;;;5.95;100.00
30081;BME280;16902;50.816;12.828;2023-03-21T04:34:38;97843.75;;;5.89;100.00
30081;BME280;16902;50.816;12.828;2023-03-21T04:39:41;97839.03;;;5.84;100.00
30081;BME280;16902;50.816;12.828;2023-03-21T04:44:45;97840.50;;;5.87;100.00
30081;BME280;16902;50.816;12.828;2023-03-21T04:49:47;97838.66;;;5.79;100.00
30081;BME280;16902;50.816;12.828;2023-03-21T04:54:48;97831.72;;;5.62;100.00
30081;BME280;16902;50.816;12.828;2023-03-21T04:59:51;97820.72;;;5.60;100.00
30081;BME280;16902;50.816;12.828;2023-03-21T05:04:53;97820.06;;;5.58;100.00
30081;BME280;16902;50.816;12.828;2023-03-21T05:09:54;97817.63;;;5.56;100.00
30081;BME280;16902;50.816;12.828;2023-03-21T05:14:56;97813.66;;;5.62;100.00
30081;BME280;16902;50.816;12.828;2023-03-21T05:19:58;97814.97;;;5.66;100.00
30081;BME280;16902;50.816;12.828;2023-03-21T05:25:00;97807.81;;;5.60;100.00
30081;BME280;16902;50.816;12.828;2023-03-21T05:30:18;97810.25;;;5.61;100.00
30081;BME280;16902;50.816;12.828;2023-03-21T05:35:24;97804.88;;;5.73;100.00
30081;BME280;16902;50.816;12.828;2023-03-21T05:40:29;97808.34;;;5.81;100.00
30081;BME280;16902;50.816;12.828;2023-03-21T05:45:32;97808.69;;;5.86;100.00
30081;BME280;16902;50.816;12.828;2023-03-21T05:50:34;97802.16;;;5.92;100.00
30081;BME280;16902;50.816;12.828;2023-03-21T05:55:44;97816.44;;;6.04;100.00
30081;BME280;16902;50.816;12.828;2023-03-21T06:00:57;97809.72;;;6.11;100.00
30081;BME280;16902;50.816;12.828;2023-03-21T06:06:05;97810.91;;;6.17;100.00
30081;BME280;16902;50.816;12.828;2023-03-21T06:11:25;97821.91;;;6.19;100.00
30081;BME280;16902;50.816;12.828;2023-03-21T06:16:53;97822.88;;;6.18;100.00
30081;BME280;16902;50.816;12.828;2023-03-21T06:21:55;97820.72;;;6.13;100.00
30081;BME280;16902;50.816;12.828;2023-03-21T06:26:58;97822.13;;;6.26;100.00
30081;BME280;16902;50.816;12.828;2023-03-21T06:32:06;97825.72;;;6.33;100.00
30081;BME280;16902;50.816;12.828;2023-03-21T06:37:08;97827.72;;;6.39;100.00
30081;BME280;16902;50.816;12.828;2023-03-21T06:42:11;97829.88;;;6.52;100.00
30081;BME280;16902;50.816;12.828;2023-03-21T06:47:13;97828.16;;;6.60;100.00
30081;BME280;16902;50.816;12.828;2023-03-21T06:52:18;97829.66;;;6.71;100.00
30081;BME280;16902;50.816;12.828;2023-03-21T06:57:20;97839.44;;;6.77;100.00
30081;BME280;16902;50.816;12.828;2023-03-21T07:02:23;97828.00;;;6.96;100.00
30081;BME280;16902;50.816;12.828;2023-03-21T07:07:48;97840.69;;;7.07;100.00
30081;BME280;16902;50.816;12.828;2023-03-21T07:12:50;97830.59;;;7.30;100.00
30081;BME280;16902;50.816;12.828;2023-03-21T07:17:58;97831.09;;;7.42;100.00
30081;BME280;16902;50.816;12.828;2023-03-21T07:23:00;97825.84;;;7.76;100.00
30081;BME280;16902;50.816;12.828;2023-03-21T07:28:02;97830.03;;;7.77;100.00
30081;BME280;16902;50.816;12.828;2023-03-21T07:33:03;97832.50;;;7.95;100.00
30081;BME280;16902;50.816;12.828;2023-03-21T07:38:06;97825.22;;;8.39;100.00
30081;BME280;16902;50.816;12.828;2023-03-21T07:43:08;97822.59;;;8.64;100.00
30081;BME280;16902;50.816;12.828;2023-03-21T07:48:11;97832.28;;;8.78;100.00
30081;BME280;16902;50.816;12.828;2023-03-21T07:53:18;97832.22;;;9.02;100.00
30081;BME280;16902;50.816;12.828;2023-03-21T07:58:21;97830.47;;;8.87;100.00
30081;BME280;16902;50.816;12.828;2023-03-21T08:03:22;97831.47;;;8.78;100.00
30081;BME280;16902;50.816;12.828;2023-03-21T08:08:26;97840.81;;;9.03;100.00
30081;BME280;16902;50.816;12.828;2023-03-21T08:13:28;97836.16;;;9.30;100.00
30081;BME280;16902;50.816;12.828;2023-03-21T08:18:30;97840.97;;;9.72;100.00
30081;BME280;16902;50.816;12.828;2023-03-21T08:23:31;97841.06;;;9.56;100.00
30081;BME280;16902;50.816;12.828;2023-03-21T08:28:33;97847.28;;;10.00;100.00
30081;BME280;16902;50.816;12.828;2023-03-21T08:33:35;97847.75;;;10.27;100.00
30081;BME280;16902;50.816;12.828;2023-03-21T08:38:37;97828.97;;;10.54;100.00
30081;BME280;16902;50.816;12.828;2023-03-21T08:43:39;97841.09;;;11.06;100.00
30081;BME280;16902;50.816;12.828;2023-03-21T08:48:41;97846.78;;;11.10;100.00
30081;BME280;16902;50.816;12.828;2023-03-21T08:53:43;97832.31;;;10.78;100.00
30081;BME280;16902;50.816;12.828;2023-03-21T08:58:45;97829.66;;;10.48;100.00
30081;BME280;16902;50.816;12.828;2023-03-21T09:03:47;97833.16;;;11.44;100.00
30081;BME280;16902;50.816;12.828;2023-03-21T09:08:49;97827.75;;;11.61;100.00
30081;BME280;16902;50.816;12.828;2023-03-21T09:13:53;97831.50;;;10.92;100.00
30081;BME280;16902;50.816;12.828;2023-03-21T09:18:55;97824.66;;;11.21;100.00
30081;BME280;16902;50.816;12.828;2023-03-21T09:23:59;97826.56;;;11.27;100.00
30081;BME280;16902;50.816;12.828;2023-03-21T09:29:01;97820.19;;;11.15;100.00
30081;BME280;16902;50.816;12.828;2023-03-21T09:34:05;97801.56;;;11.32;100.00
30081;BME280;16902;50.816;12.828;2023-03-21T09:39:07;97800.53;;;12.34;100.00
30081;BME280;16902;50.816;12.828;2023-03-21T09:49:33;97808.34;;;12.97;100.00
30081;BME280;16902;50.816;12.828;2023-03-21T09:54:38;97793.56;;;12.76;100.00
30081;BME280;16902;50.816;12.828;2023-03-21T09:59:43;97793.44;;;12.56;100.00
30081;BME280;16902;50.816;12.828;2023-03-21T10:04:45;97780.59;;;12.96;100.00
30081;BME280;16902;50.816;12.828;2023-03-21T10:09:47;97785.53;;;13.73;100.00
30081;BME280;16902;50.816;12.828;2023-03-21T10:14:54;97780.38;;;13.38;100.00
30081;BME280;16902;50.816;12.828;2023-03-21T10:25:31;97764.81;;;13.98;100.00
30081;BME280;16902;50.816;12.828;2023-03-21T10:30:40;97767.22;;;13.73;100.00
30081;BME280;16902;50.816;12.828;2023-03-21T10:35:48;97755.84;;;13.33;100.00
30081;BME280;16902;50.816;12.828;2023-03-21T10:40:50;97755.72;;;13.81;100.00
30081;BME280;16902;50.816;12.828;2023-03-21T10:45:56;97752.13;;;14.22;100.00
30081;BME280;16902;50.816;12.828;2023-03-21T10:50:58;97746.16;;;14.86;100.00
30081;BME280;16902;50.816;12.828;2023-03-21T10:56:00;97747.25;;;14.38;100.00
30081;BME280;16902;50.816;12.828;2023-03-21T11:01:05;97735.97;;;14.58;100.00
30081;BME280;16902;50.816;12.828;2023-03-21T11:11:28;97743.97;;;14.76;100.00
30081;BME280;16902;50.816;12.828;2023-03-21T11:16:43;97737.78;;;15.47;100.00
30081;BME280;16902;50.816;12.828;2023-03-21T11:21:45;97732.47;;;15.67;100.00
30081;BME280;16902;50.816;12.828;2023-03-21T11:26:48;97730.34;;;15.76;100.00
30081;BME280;16902;50.816;12.828;2023-03-21T11:31:51;97734.41;;;16.65;100.00
30081;BME280;16902;50.816;12.828;2023-03-21T11:36:58;97732.56;;;16.47;100.00
30081;BME280;16902;50.816;12.828;2023-03-21T11:42:01;97730.44;;;16.37;100.00
30081;BME280;16902;50.816;12.828;2023-03-21T11:47:03;97717.03;;;17.01;100.00
30081;BME280;16902;50.816;12.828;2023-03-21T11:52:16;97716.91;;;17.67;100.00
30081;BME280;16902;50.816;12.828;2023-03-21T11:57:47;97712.16;;;17.76;100.00
30081;BME280;16902;50.816;12.828;2023-03-21T12:13:39;97693.59;;;16.44;100.00
30081;BME280;16902;50.816;12.828;2023-03-21T12:24:23;97690.63;;;18.49;100.00
30081;BME280;16902;50.816;12.828;2023-03-21T12:40:52;97652.19;;;18.13;100.00
30081;BME280;16902;50.816;12.828;2023-03-21T12:45:38;97658.03;;;17.38;100.00
30081;BME280;16902;50.816;12.828;2023-03-21T12:50:50;97651.38;;;16.94;100.00
30081;BME280;16902;50.816;12.828;2023-03-21T12:55:57;97650.41;;;17.07;100.00
30081;BME280;16902;50.816;12.828;2023-03-21T13:01:02;97639.66;;;17.08;100.00
30081;BME280;16902;50.816;12.828;2023-03-21T13:06:10;97640.44;;;17.62;100.00
30081;BME280;16902;50.816;12.828;2023-03-21T13:11:17;97630.97;;;17.96;100.00
30081;BME280;16902;50.816;12.828;2023-03-21T13:16:27;97615.47;;;18.75;100.00
30081;BME280;16902;50.816;12.828;2023-03-21T13:26:40;97610.19;;;16.39;100.00
30081;BME280;16902;50.816;12.828;2023-03-21T13:31:48;97606.06;;;16.43;100.00
30081;BME280;16902;50.816;12.828;2023-03-21T13:36:54;97606.72;;;16.57;100.00
30081;BME280;16902;50.816;12.828;2023-03-21T13:42:02;97601.91;;;16.54;100.00
30081;BME280;16902;50.816;12.828;2023-03-21T13:47:22;97592.91;;;16.80;100.00
30081;BME280;16902;50.816;12.828;2023-03-21T13:52:26;97595.06;;;16.35;100.00
30081;BME280;16902;50.816;12.828;2023-03-21T14:02:32;97582.06;;;16.40;100.00
30081;BME280;16902;50.816;12.828;2023-03-21T14:07:40;97574.97;;;16.59;100.00
30081;BME280;16902;50.816;12.828;2023-03-21T14:12:42;97577.34;;;16.79;100.00
30081;BME280;16902;50.816;12.828;2023-03-21T14:18:05;97555.25;;;17.10;100.00
30081;BME280;16902;50.816;12.828;2023-03-21T14:23:27;97564.78;;;17.23;100.00
30081;BME280;16902;50.816;12.828;2023-03-21T14:28:29;97554.97;;;17.65;100.00
30081;BME280;16902;50.816;12.828;2023-03-21T14:33:40;97552.66;;;16.80;100.00
30081;BME280;16902;50.816;12.828;2023-03-21T14:38:57;97545.88;;;16.72;100.00
30081;BME280;16902;50.816;12.828;2023-03-21T14:44:17;97539.56;;;16.43;100.00
30081;BME280;16902;50.816;12.828;2023-03-21T14:49:28;97526.94;;;16.22;100.00
30081;BME280;16902;50.816;12.828;2023-03-21T14:54:31;97523.91;;;16.36;100.00
30081;BME280;16902;50.816;12.828;2023-03-21T14:59:35;97524.84;;;16.42;100.00
30081;BME280;16902;50.816;12.828;2023-03-21T15:04:38;97530.59;;;16.21;100.00
30081;BME280;16902;50.816;12.828;2023-03-21T15:09:52;97529.13;;;16.25;100.00
30081;BME280;16902;50.816;12.828;2023-03-21T15:14:54;97518.06;;;15.86;100.00
30081;BME280;16902;50.816;12.828;2023-03-21T15:19:56;97510.66;;;15.58;100.00
30081;BME280;16902;50.816;12.828;2023-03-21T15:25:01;97508.91;;;15.27;100.00
30081;BME280;16902;50.816;12.828;2023-03-21T15:30:05;97507.38;;;14.94;100.00
30081;BME280;16902;50.816;12.828;2023-03-21T15:35:19;97496.19;;;14.80;100.00
30081;BME280;16902;50.816;12.828;2023-03-21T15:40:29;97500.56;;;14.61;100.00
30081;BME280;16902;50.816;12.828;2023-03-21T15:45:31;97485.75;;;14.74;100.00
30081;BME280;16902;50.816;12.828;2023-03-21T15:51:10;97486.69;;;14.79;100.00
30081;BME280;16902;50.816;12.828;2023-03-21T15:56:12;97493.41;;;14.75;100.00
30081;BME280;16902;50.816;12.828;2023-03-21T16:01:18;97488.25;;;14.62;100.00
30081;BME280;16902;50.816;12.828;2023-03-21T16:06:22;97489.53;;;14.53;100.00
30081;BME280;16902;50.816;12.828;2023-03-21T16:16:51;97491.44;;;14.26;100.00
30081;BME280;16902;50.816;12.828;2023-03-21T16:21:53;97488.25;;;14.24;100.00
30081;BME280;16902;50.816;12.828;2023-03-21T16:26:55;97492.09;;;14.14;100.00
30081;BME280;16902;50.816;12.828;2023-03-21T16:31:56;97490.53;;;14.07;100.00
30081;BME280;16902;50.816;12.828;2023-03-21T16:36:58;97489.97;;;13.98;100.00
30081;BME280;16902;50.816;12.828;2023-03-21T16:42:00;97487.81;;;13.82;100.00
30081;BME280;16902;50.816;12.828;2023-03-21T16:47:01;97496.03;;;13.92;100.00
30081;BME280;16902;50.816;12.828;2023-03-21T16:52:03;97502.13;;;13.79;100.00
30081;BME280;16902;50.816;12.828;2023-03-21T16:57:07;97511.56;;;13.80;100.00
30081;BME280;16902;50.816;12.828;2023-03-21T17:02:14;97508.59;;;13.70;100.00
30081;BME280;16902;50.816;12.828;2023-03-21T17:07:17;97513.63;;;13.58;100.00
30081;BME280;16902;50.816;12.828;2023-03-21T17:12:19;97505.63;;;13.47;100.00
30081;BME280;16902;50.816;12.828;2023-03-21T17:17:21;97500.81;;;13.30;100.00
30081;BME280;16902;50.816;12.828;2023-03-21T17:22:22;97499.59;;;13.13;100.00
30081;BME280;16902;50.816;12.828;2023-03-21T17:27:24;97503.38;;;12.71;100.00
30081;BME280;16902;50.816;12.828;2023-03-21T17:32:26;97509.59;;;12.50;100.00
30081;BME280;16902;50.816;12.828;2023-03-21T17:37:27;97507.69;;;12.17;100.00
30081;BME280;16902;50.816;12.828;2023-03-21T17:42:29;97507.13;;;11.80;100.00
30081;BME280;16902;50.816;12.828;2023-03-21T17:47:31;97513.59;;;11.56;100.00
30081;BME280;16902;50.816;12.828;2023-03-21T17:52:33;97513.59;;;11.22;100.00
30081;BME280;16902;50.816;12.828;2023-03-21T17:57:35;97519.19;;;11.25;100.00
30081;BME280;16902;50.816;12.828;2023-03-21T18:02:38;97521.72;;;11.12;100.00
30081;BME280;16902;50.816;12.828;2023-03-21T18:07:42;97515.28;;;10.87;100.00
30081;BME280;16902;50.816;12.828;2023-03-21T18:13:03;97519.28;;;10.61;100.00
30081;BME280;16902;50.816;12.828;2023-03-21T18:18:05;97518.56;;;10.52;100.00
30081;BME280;16902;50.816;12.828;2023-03-21T18:23:07;97520.38;;;10.52;100.00
30081;BME280;16902;50.816;12.828;2023-03-21T18:28:09;97517.28;;;10.42;100.00
30081;BME280;16902;50.816;12.828;2023-03-21T18:33:13;97520.78;;;10.19;100.00
30081;BME280;16902;50.816;12.828;2023-03-21T18:38:15;97520.47;;;10.08;100.00
30081;BME280;16902;50.816;12.828;2023-03-21T18:43:17;97526.72;;;10.13;100.00
30081;BME280;16902;50.816;12.828;2023-03-21T18:48:38;97516.59;;;10.18;100.00
30081;BME280;16902;50.816;12.828;2023-03-21T18:53:41;97520.44;;;10.59;100.00
30081;BME280;16902;50.816;12.828;2023-03-21T18:58:43;97526.75;;;10.92;100.00
30081;BME280;16902;50.816;12.828;2023-03-21T19:03:45;97528.97;;;11.17;100.00
30081;BME280;16902;50.816;12.828;2023-03-21T19:09:07;97529.03;;;11.23;100.00
30081;BME280;16902;50.816;12.828;2023-03-21T19:14:12;97529.03;;;11.23;100.00
30081;BME280;16902;50.816;12.828;2023-03-21T19:19:14;97529.38;;;11.20;100.00
30081;BME280;16902;50.816;12.828;2023-03-21T19:24:19;97528.16;;;11.16;100.00
30081;BME280;16902;50.816;12.828;2023-03-21T19:29:28;97526.97;;;11.19;100.00
30081;BME280;16902;50.816;12.828;2023-03-21T19:34:30;97531.22;;;11.26;100.00
30081;BME280;16902;50.816;12.828;2023-03-21T19:39:32;97535.63;;;11.26;100.00
30081;BME280;16902;50.816;12.828;2023-03-21T19:44:34;97530.66;;;11.31;100.00
30081;BME280;16902;50.816;12.828;2023-03-21T19:49:37;97526.84;;;11.27;100.00
30081;BME280;16902;50.816;12.828;2023-03-21T19:55:01;97534.28;;;11.30;100.00
30081;BME280;16902;50.816;12.828;2023-03-21T20:00:03;97533.22;;;11.24;100.00
30081;BME280;16902;50.816;12.828;2023-03-21T20:05:06;97531.44;;;11.25;100.00
30081;BME280;16902;50.816;12.828;2023-03-21T20:10:08;97534.66;;;11.27;100.00
30081;BME280;16902;50.816;12.828;2023-03-21T20:15:12;97534.09;;;11.31;100.00
30081;BME280;16902;50.816;12.828;2023-03-21T20:20:21;97538.69;;;11.29;100.00
30081;BME280;16902;50.816;12.828;2023-03-21T20:25:24;97539.25;;;11.25;100.00
30081;BME280;16902;50.816;12.828;2023-03-21T20:30:26;97530.44;;;10.98;100.00
30081;BME280;16902;50.816;12.828;2023-03-21T20:35:28;97539.44;;;10.74;100.00
30081;BME280;16902;50.816;12.828;2023-03-21T20:40:51;97544.25;;;10.55;100.00
30081;BME280;16902;50.816;12.828;2023-03-21T20:46:02;97542.41;;;10.49;100.00
30081;BME280;16902;50.816;12.828;2023-03-21T20:51:09;97541.44;;;10.36;100.00
30081;BME280;16902;50.816;12.828;2023-03-21T20:56:31;97535.25;;;10.22;100.00
30081;BME280;16902;50.816;12.828;2023-03-21T21:01:33;97536.53;;;10.26;100.00
30081;BME280;16902;50.816;12.828;2023-03-21T21:06:35;97533.13;;;10.25;100.00
30081;BME280;16902;50.816;12.828;2023-03-21T21:11:37;97542.78;;;10.17;100.00
30081;BME280;16902;50.816;12.828;2023-03-21T21:16:59;97531.69;;;10.08;100.00
30081;BME280;16902;50.816;12.828;2023-03-21T21:22:17;97534.38;;;10.00;100.00
30081;BME280;16902;50.816;12.828;2023-03-21T21:27:19;97539.69;;;9.92;100.00
30081;BME280;16902;50.816;12.828;2023-03-21T21:32:21;97542.19;;;9.85;100.00
30081;BME280;16902;50.816;12.828;2023-03-21T21:37:23;97543.53;;;9.81;100.00
30081;BME280;16902;50.816;12.828;2023-03-21T21:42:25;97538.44;;;9.73;100.00
30081;BME280;16902;50.816;12.828;2023-03-21T21:47:27;97534.75;;;9.67;100.00
30081;BME280;16902;50.816;12.828;2023-03-21T21:52:29;97539.69;;;9.62;100.00
30081;BME280;16902;50.816;12.828;2023-03-21T21:57:31;97536.72;;;9.65;100.00
30081;BME280;16902;50.816;12.828;2023-03-21T22:02:35;97539.97;;;9.67;100.00
30081;BME280;16902;50.816;12.828;2023-03-21T22:07:37;97548.03;;;9.58;100.00
30081;BME280;16902;50.816;12.828;2023-03-21T22:12:39;97549.91;;;9.49;100.00
30081;BME280;16902;50.816;12.828;2023-03-21T22:17:41;97538.78;;;9.40;100.00
30081;BME280;16902;50.816;12.828;2023-03-21T22:22:43;97528.00;;;9.29;100.00
30081;BME280;16902;50.816;12.828;2023-03-21T22:27:45;97528.25;;;9.19;100.00
30081;BME280;16902;50.816;12.828;2023-03-21T22:32:49;97531.38;;;9.14;100.00
30081;BME280;16902;50.816;12.828;2023-03-21T22:38:09;97535.13;;;9.12;100.00
30081;BME280;16902;50.816;12.828;2023-03-21T22:43:10;97527.78;;;9.00;100.00
30081;BME280;16902;50.816;12.828;2023-03-21T22:48:12;97530.88;;;8.96;100.00
30081;BME280;16902;50.816;12.828;2023-03-21T22:53:14;97520.66;;;8.94;100.00
30081;BME280;16902;50.816;12.828;2023-03-21T22:58:16;97522.34;;;8.87;100.00
30081;BME280;16902;50.816;12.828;2023-03-21T23:03:18;97537.22;;;8.93;100.00
30081;BME280;16902;50.816;12.828;2023-03-21T23:08:20;97522.91;;;8.97;100.00
30081;BME280;16902;50.816;12.828;2023-03-21T23:13:22;97518.00;;;9.02;100.00
30081;BME280;16902;50.816;12.828;2023-03-21T23:18:24;97521.41;;;9.03;100.00
30081;BME280;16902;50.816;12.828;2023-03-21T23:23:26;97523.56;;;8.99;100.00
30081;BME280;16902;50.816;12.828;2023-03-21T23:28:28;97515.84;;;8.91;100.00
30081;BME280;16902;50.816;12.828;2023-03-21T23:33:30;97514.53;;;8.72;100.00
30081;BME280;16902;50.816;12.828;2023-03-21T23:38:32;97511.94;;;8.72;100.00
30081;BME280;16902;50.816;12.828;2023-03-21T23:43:34;97500.50;;;8.59;100.00
30081;BME280;16902;50.816;12.828;2023-03-21T23:48:36;97502.81;;;8.54;100.00
30081;BME280;16902;50.816;12.828;2023-03-21T23:53:38;97504.03;;;8.35;100.00
30081;BME280;16902;50.816;12.828;2023-03-21T23:58:40;97497.63;;;8.22;100.00
